sensor_id;sensor_type;location;lat;lon;timestamp;pressure;altitude;pressure_sealevel;temperature;humidity
26719;BME280;14326;50.794;6.060;2023-03-23T00:00:06;98487.28;;;12.20;100.00
26719;BME280;14326;50.794;6.060;2023-03-23T00:02:56;98491.75;;;12.20;100.00
26719;BME280;14326;50.794;6.060;2023-03-23T00:08:35;98493.53;;;12.19;100.00
26719;BME280;14326;50.794;6.060;2023-03-23T00:11:03;98496.25;;;12.18;100.00
26719;BME280;14326;50.794;6.060;2023-03-23T00:13:56;98486.47;;;12.17;100.00
26719;BME280;14326;50.794;6.060;2023-03-23T00:16:29;98494.47;;;12.15;100.00
26719;BME280;14326;50.794;6.060;2023-03-23T00:18:59;98490.94;;;12.15;100.00
26719;BME280;14326;50.794;6.060;2023-03-23T00:21:28;98485.66;;;12.12;100.00
26719;BME280;14326;50.794;6.060;2023-03-23T00:24:01;98483.03;;;12.09;100.00
26719;BME280;14326;50.794;6.060;2023-03-23T00:26:28;98482.16;;;12.08;100.00
26719;BME280;14326;50.794;6.060;2023-03-23T00:28:58;98480.41;;;12.07;100.00
26719;BME280;14326;50.794;6.060;2023-03-23T00:31:27;98472.38;;;12.09;100.00
26719;BME280;14326;50.794;6.060;2023-03-23T00:34:14;98484.00;;;12.05;100.00
26719;BME280;14326;50.794;6.060;2023-03-23T00:36:58;98481.22;;;12.12;100.00
26719;BME280;14326;50.794;6.060;2023-03-23T00:39:33;98479.44;;;12.13;100.00
26719;BME280;14326;50.794;6.060;2023-03-23T00:42:15;98476.81;;;12.08;100.00
26719;BME280;14326;50.794;6.060;2023-03-23T00:44:42;98475.13;;;12.04;100.00
26719;BME280;14326;50.794;6.060;2023-03-23T00:47:11;98484.91;;;12.02;100.00
26719;BME280;14326;50.794;6.060;2023-03-23T00:49:38;98475.19;;;12.00;100.00
26719;BME280;14326;50.794;6.060;2023-03-23T00:52:06;98486.75;;;11.97;100.00
26719;BME280;14326;50.794;6.060;2023-03-23T00:54:33;98485.94;;;11.95;100.00
26719;BME280;14326;50.794;6.060;2023-03-23T00:57:01;98484.16;;;11.94;100.00
26719;BME280;14326;50.794;6.060;2023-03-23T00:59:28;98487.72;;;11.95;100.00
26719;BME280;14326;50.794;6.060;2023-03-23T01:01:55;98488.69;;;11.89;100.00
26719;BME280;14326;50.794;6.060;2023-03-23T01:04:23;98478.03;;;11.87;100.00
26719;BME280;14326;50.794;6.060;2023-03-23T01:06:54;98478.06;;;11.86;100.00
26719;BME280;14326;50.794;6.060;2023-03-23T01:09:21;98478.09;;;11.83;100.00
26719;BME280;14326;50.794;6.060;2023-03-23T01:11:50;98495.91;;;11.79;100.00
26719;BME280;14326;50.794;6.060;2023-03-23T01:14:19;98494.09;;;11.83;100.00
26719;BME280;14326;50.794;6.060;2023-03-23T01:16:46;98464.81;;;11.80;100.00
26719;BME280;14326;50.794;6.060;2023-03-23T01:19:13;98467.56;;;11.74;100.00
26719;BME280;14326;50.794;6.060;2023-03-23T01:21:42;98473.84;;;11.67;100.00
26719;BME280;14326;50.794;6.060;2023-03-23T01:24:09;98463.16;;;11.70;100.00
26719;BME280;14326;50.794;6.060;2023-03-23T01:26:36;98449.84;;;11.68;100.00
26719;BME280;14326;50.794;6.060;2023-03-23T01:29:02;98464.13;;;11.66;100.00
26719;BME280;14326;50.794;6.060;2023-03-23T01:31:35;98457.94;;;11.61;100.00
26719;BME280;14326;50.794;6.060;2023-03-23T01:34:08;98433.88;;;11.67;100.00
26719;BME280;14326;50.794;6.060;2023-03-23T01:36:35;98451.69;;;11.66;100.00
26719;BME280;14326;50.794;6.060;2023-03-23T01:39:04;98451.63;;;11.69;100.00
26719;BME280;14326;50.794;6.060;2023-03-23T01:41:32;98443.63;;;11.69;100.00
26719;BME280;14326;50.794;6.060;2023-03-23T01:44:01;98447.16;;;11.71;100.00
26719;BME280;14326;50.794;6.060;2023-03-23T01:46:39;98429.41;;;11.72;100.00
26719;BME280;14326;50.794;6.060;2023-03-23T01:49:12;98423.19;;;11.71;100.00
26719;BME280;14326;50.794;6.060;2023-03-23T01:51:43;98430.31;;;11.71;100.00
26719;BME280;14326;50.794;6.060;2023-03-23T01:54:14;98410.75;;;11.72;100.00
26719;BME280;14326;50.794;6.060;2023-03-23T01:56:47;98395.63;;;11.72;100.00
26719;BME280;14326;50.794;6.060;2023-03-23T01:59:15;98361.00;;;11.75;100.00
26719;BME280;14326;50.794;6.060;2023-03-23T02:01:42;98402.66;;;11.79;100.00
26719;BME280;14326;50.794;6.060;2023-03-23T02:07:51;98387.63;;;11.75;100.00
26719;BME280;14326;50.794;6.060;2023-03-23T02:10:31;98392.94;;;11.77;100.00
26719;BME280;14326;50.794;6.060;2023-03-23T02:13:07;98409.81;;;11.76;100.00
26719;BME280;14326;50.794;6.060;2023-03-23T02:15:41;98415.97;;;11.81;100.00
26719;BME280;14326;50.794;6.060;2023-03-23T02:18:23;98421.38;;;11.76;100.00
26719;BME280;14326;50.794;6.060;2023-03-23T02:21:30;98426.72;;;11.75;100.00
26719;BME280;14326;50.794;6.060;2023-03-23T02:24:18;98430.25;;;11.77;100.00
26719;BME280;14326;50.794;6.060;2023-03-23T02:26:54;98434.72;;;11.73;100.00
26719;BME280;14326;50.794;6.060;2023-03-23T02:29:39;98431.13;;;11.77;100.00
26719;BME280;14326;50.794;6.060;2023-03-23T02:32:34;98426.63;;;11.81;100.00
26719;BME280;14326;50.794;6.060;2023-03-23T02:35:09;98423.91;;;11.84;100.00
26719;BME280;14326;50.794;6.060;2023-03-23T02:37:43;98421.28;;;11.82;100.00
26719;BME280;14326;50.794;6.060;2023-03-23T02:40:16;98419.44;;;11.86;100.00
26719;BME280;14326;50.794;6.060;2023-03-23T02:42:48;98397.13;;;11.92;100.00
26719;BME280;14326;50.794;6.060;2023-03-23T02:45:17;98393.56;;;11.94;100.00
26719;BME280;14326;50.794;6.060;2023-03-23T02:47:54;98405.16;;;11.90;100.00
26719;BME280;14326;50.794;6.060;2023-03-23T02:50:37;98401.69;;;11.85;100.00
26719;BME280;14326;50.794;6.060;2023-03-23T02:53:08;98398.03;;;11.92;100.00
26719;BME280;14326;50.794;6.060;2023-03-23T02:55:38;98392.69;;;11.92;100.00
26719;BME280;14326;50.794;6.060;2023-03-23T02:58:07;98401.59;;;11.91;100.00
26719;BME280;14326;50.794;6.060;2023-03-23T03:00:34;98405.94;;;11.97;100.00
26719;BME280;14326;50.794;6.060;2023-03-23T03:03:01;98407.78;;;11.93;100.00
26719;BME280;14326;50.794;6.060;2023-03-23T03:08:54;98402.53;;;11.88;100.00
26719;BME280;14326;50.794;6.060;2023-03-23T03:11:45;98396.16;;;11.97;100.00
26719;BME280;14326;50.794;6.060;2023-03-23T03:14:17;98408.59;;;11.97;100.00
26719;BME280;14326;50.794;6.060;2023-03-23T03:16:49;98407.78;;;11.95;100.00
26719;BME280;14326;50.794;6.060;2023-03-23T03:19:22;98400.69;;;11.92;100.00
26719;BME280;14326;50.794;6.060;2023-03-23T03:21:53;98400.75;;;11.89;100.00
26719;BME280;14326;50.794;6.060;2023-03-23T03:24:23;98387.34;;;11.95;100.00
26719;BME280;14326;50.794;6.060;2023-03-23T03:27:02;98384.69;;;11.92;100.00
26719;BME280;14326;50.794;6.060;2023-03-23T03:29:53;98385.56;;;11.94;100.00
26719;BME280;14326;50.794;6.060;2023-03-23T03:32:23;98383.69;;;11.99;100.00
26719;BME280;14326;50.794;6.060;2023-03-23T03:34:53;98369.41;;;12.03;100.00
26719;BME280;14326;50.794;6.060;2023-03-23T03:37:19;98364.09;;;12.02;100.00
26719;BME280;14326;50.794;6.060;2023-03-23T03:42:55;98381.94;;;11.97;100.00
26719;BME280;14326;50.794;6.060;2023-03-23T03:45:22;98384.59;;;11.98;100.00
26719;BME280;14326;50.794;6.060;2023-03-23T03:47:48;98378.38;;;11.99;100.00
26719;BME280;14326;50.794;6.060;2023-03-23T03:50:16;98378.34;;;12.01;100.00
26719;BME280;14326;50.794;6.060;2023-03-23T03:52:42;98375.72;;;11.98;100.00
26719;BME280;14326;50.794;6.060;2023-03-23T03:55:11;98371.28;;;11.98;100.00
26719;BME280;14326;50.794;6.060;2023-03-23T03:57:38;98374.84;;;11.97;100.00
26719;BME280;14326;50.794;6.060;2023-03-23T04:00:12;98380.16;;;11.97;100.00
26719;BME280;14326;50.794;6.060;2023-03-23T04:02:43;98371.34;;;11.95;100.00
26719;BME280;14326;50.794;6.060;2023-03-23T04:05:13;98378.41;;;11.96;100.00
26719;BME280;14326;50.794;6.060;2023-03-23T04:07:40;98389.94;;;11.97;100.00
26719;BME280;14326;50.794;6.060;2023-03-23T04:10:08;98390.00;;;11.94;100.00
26719;BME280;14326;50.794;6.060;2023-03-23T04:12:37;98391.81;;;11.92;100.00
26719;BME280;14326;50.794;6.060;2023-03-23T04:15:05;98390.03;;;11.90;100.00
26719;BME280;14326;50.794;6.060;2023-03-23T04:17:32;98395.34;;;11.92;100.00
26719;BME280;14326;50.794;6.060;2023-03-23T04:20:14;98403.44;;;11.87;100.00
26719;BME280;14326;50.794;6.060;2023-03-23T04:23:01;98412.38;;;11.83;100.00
26719;BME280;14326;50.794;6.060;2023-03-23T04:25:45;98410.63;;;11.82;100.00
26719;BME280;14326;50.794;6.060;2023-03-23T04:28:13;98419.59;;;11.77;100.00
26719;BME280;14326;50.794;6.060;2023-03-23T04:30:42;98412.41;;;11.80;100.00
26719;BME280;14326;50.794;6.060;2023-03-23T04:33:11;98422.19;;;11.80;100.00
26719;BME280;14326;50.794;6.060;2023-03-23T04:35:51;98421.28;;;11.81;100.00
26719;BME280;14326;50.794;6.060;2023-03-23T04:38:23;98413.31;;;11.81;100.00
26719;BME280;14326;50.794;6.060;2023-03-23T04:41:00;98422.19;;;11.78;100.00
26719;BME280;14326;50.794;6.060;2023-03-23T04:43:29;98430.09;;;11.84;100.00
26719;BME280;14326;50.794;6.060;2023-03-23T04:45:57;98425.63;;;11.88;100.00
26719;BME280;14326;50.794;6.060;2023-03-23T04:48:23;98426.59;;;11.82;100.00
26719;BME280;14326;50.794;6.060;2023-03-23T04:50:51;98435.53;;;11.78;100.00
26719;BME280;14326;50.794;6.060;2023-03-23T04:53:18;98421.19;;;11.87;100.00
26719;BME280;14326;50.794;6.060;2023-03-23T04:58:40;98438.19;;;11.78;100.00
26719;BME280;14326;50.794;6.060;2023-03-23T05:01:19;98424.03;;;11.78;100.00
26719;BME280;14326;50.794;6.060;2023-03-23T05:03:56;98417.81;;;11.77;100.00
26719;BME280;14326;50.794;6.060;2023-03-23T05:06:23;98426.69;;;11.78;100.00
26719;BME280;14326;50.794;6.060;2023-03-23T05:08:49;98429.38;;;11.75;100.00
26719;BME280;14326;50.794;6.060;2023-03-23T05:11:16;98432.84;;;11.78;100.00
26719;BME280;14326;50.794;6.060;2023-03-23T05:13:44;98433.81;;;11.76;100.00
26719;BME280;14326;50.794;6.060;2023-03-23T05:16:10;98445.41;;;11.70;100.00
26719;BME280;14326;50.794;6.060;2023-03-23T05:18:37;98429.41;;;11.72;100.00
26719;BME280;14326;50.794;6.060;2023-03-23T05:21:04;98438.31;;;11.69;100.00
26719;BME280;14326;50.794;6.060;2023-03-23T05:23:31;98455.19;;;11.68;100.00
26719;BME280;14326;50.794;6.060;2023-03-23T05:25:59;98439.25;;;11.65;100.00
26719;BME280;14326;50.794;6.060;2023-03-23T05:28:27;98438.38;;;11.66;100.00
26719;BME280;14326;50.794;6.060;2023-03-23T05:30:57;98429.50;;;11.64;100.00
26719;BME280;14326;50.794;6.060;2023-03-23T05:33:23;98428.56;;;11.67;100.00
26719;BME280;14326;50.794;6.060;2023-03-23T05:35:50;98444.59;;;11.64;100.00
26719;BME280;14326;50.794;6.060;2023-03-23T05:38:17;98439.28;;;11.64;100.00
26719;BME280;14326;50.794;6.060;2023-03-23T05:40:44;98436.63;;;11.61;100.00
26719;BME280;14326;50.794;6.060;2023-03-23T05:43:11;98451.75;;;11.60;100.00
26719;BME280;14326;50.794;6.060;2023-03-23T05:45:38;98446.53;;;11.53;100.00
26719;BME280;14326;50.794;6.060;2023-03-23T05:48:07;98443.84;;;11.54;100.00
26719;BME280;14326;50.794;6.060;2023-03-23T05:50:34;98445.56;;;11.57;100.00
26719;BME280;14326;50.794;6.060;2023-03-23T05:53:01;98450.91;;;11.55;100.00
26719;BME280;14326;50.794;6.060;2023-03-23T05:55:29;98451.78;;;11.59;100.00
26719;BME280;14326;50.794;6.060;2023-03-23T05:57:56;98455.28;;;11.61;100.00
26719;BME280;14326;50.794;6.060;2023-03-23T06:00:22;98453.47;;;11.66;100.00
26719;BME280;14326;50.794;6.060;2023-03-23T06:02:49;98461.44;;;11.66;100.00
26719;BME280;14326;50.794;6.060;2023-03-23T06:05:18;98454.38;;;11.63;100.00
26719;BME280;14326;50.794;6.060;2023-03-23T06:07:49;98455.19;;;11.67;100.00
26719;BME280;14326;50.794;6.060;2023-03-23T06:10:15;98441.91;;;11.65;100.00
26719;BME280;14326;50.794;6.060;2023-03-23T06:12:42;98450.78;;;11.66;100.00
26719;BME280;14326;50.794;6.060;2023-03-23T06:15:10;98456.06;;;11.69;100.00
26719;BME280;14326;50.794;6.060;2023-03-23T06:17:37;98457.84;;;11.70;100.00
26719;BME280;14326;50.794;6.060;2023-03-23T06:20:05;98456.03;;;11.73;100.00
26719;BME280;14326;50.794;6.060;2023-03-23T06:22:37;98459.56;;;11.75;100.00
26719;BME280;14326;50.794;6.060;2023-03-23T06:25:05;98448.91;;;11.75;99.93
26719;BME280;14326;50.794;6.060;2023-03-23T06:27:32;98463.00;;;11.83;99.04
26719;BME280;14326;50.794;6.060;2023-03-23T06:30:01;98470.94;;;11.88;98.74
26719;BME280;14326;50.794;6.060;2023-03-23T06:32:29;98482.34;;;11.96;98.56
26719;BME280;14326;50.794;6.060;2023-03-23T06:34:57;98478.75;;;11.97;97.73
26719;BME280;14326;50.794;6.060;2023-03-23T06:37:23;98485.88;;;11.97;97.00
26719;BME280;14326;50.794;6.060;2023-03-23T06:39:52;98479.63;;;11.99;96.91
26719;BME280;14326;50.794;6.060;2023-03-23T06:42:19;98484.97;;;12.01;96.78
26719;BME280;14326;50.794;6.060;2023-03-23T06:44:45;98485.84;;;12.00;96.43
26719;BME280;14326;50.794;6.060;2023-03-23T06:47:12;98488.50;;;12.01;96.38
26719;BME280;14326;50.794;6.060;2023-03-23T06:49:38;98501.75;;;12.06;95.67
26719;BME280;14326;50.794;6.060;2023-03-23T06:52:05;98506.13;;;12.08;96.20
26719;BME280;14326;50.794;6.060;2023-03-23T06:54:32;98507.09;;;12.04;95.91
26719;BME280;14326;50.794;6.060;2023-03-23T06:57:00;98507.97;;;12.06;95.67
26719;BME280;14326;50.794;6.060;2023-03-23T06:59:27;98504.41;;;12.06;95.15
26719;BME280;14326;50.794;6.060;2023-03-23T07:01:54;98502.63;;;12.06;95.34
26719;BME280;14326;50.794;6.060;2023-03-23T07:04:21;98505.22;;;12.11;94.42
26719;BME280;14326;50.794;6.060;2023-03-23T07:06:48;98506.03;;;12.16;93.98
26719;BME280;14326;50.794;6.060;2023-03-23T07:09:15;98501.66;;;12.13;95.17
26719;BME280;14326;50.794;6.060;2023-03-23T07:11:42;98501.66;;;12.12;94.46
26719;BME280;14326;50.794;6.060;2023-03-23T07:14:10;98504.19;;;12.19;94.14
26719;BME280;14326;50.794;6.060;2023-03-23T07:16:37;98496.19;;;12.21;94.07
26719;BME280;14326;50.794;6.060;2023-03-23T07:19:08;98498.81;;;12.22;93.47
26719;BME280;14326;50.794;6.060;2023-03-23T07:21:38;98498.91;;;12.18;94.13
26719;BME280;14326;50.794;6.060;2023-03-23T07:24:06;98490.84;;;12.21;93.51
26719;BME280;14326;50.794;6.060;2023-03-23T07:26:33;98495.19;;;12.28;92.54
26719;BME280;14326;50.794;6.060;2023-03-23T07:29:01;98493.38;;;12.30;92.59
26719;BME280;14326;50.794;6.060;2023-03-23T07:31:29;98502.22;;;12.32;91.87
26719;BME280;14326;50.794;6.060;2023-03-23T07:33:55;98500.41;;;12.36;91.92
26719;BME280;14326;50.794;6.060;2023-03-23T07:36:22;98497.72;;;12.36;92.48
26719;BME280;14326;50.794;6.060;2023-03-23T07:38:49;98493.19;;;12.41;91.84
26719;BME280;14326;50.794;6.060;2023-03-23T07:41:18;98501.19;;;12.41;91.96
26719;BME280;14326;50.794;6.060;2023-03-23T07:43:45;98501.19;;;12.42;91.09
26719;BME280;14326;50.794;6.060;2023-03-23T07:46:11;98496.66;;;12.46;91.12
26719;BME280;14326;50.794;6.060;2023-03-23T07:48:39;98510.88;;;12.46;90.66
26719;BME280;14326;50.794;6.060;2023-03-23T07:51:10;98503.78;;;12.45;91.25
26719;BME280;14326;50.794;6.060;2023-03-23T07:53:37;98508.22;;;12.46;91.05
26719;BME280;14326;50.794;6.060;2023-03-23T07:56:05;98508.09;;;12.54;90.59
26719;BME280;14326;50.794;6.060;2023-03-23T07:58:32;98512.50;;;12.55;90.58
26719;BME280;14326;50.794;6.060;2023-03-23T08:00:59;98507.94;;;12.61;89.69
26719;BME280;14326;50.794;6.060;2023-03-23T08:03:26;98498.16;;;12.62;89.79
26719;BME280;14326;50.794;6.060;2023-03-23T08:05:57;98520.38;;;12.62;89.70
26719;BME280;14326;50.794;6.060;2023-03-23T08:08:24;98511.50;;;12.63;90.59
26719;BME280;14326;50.794;6.060;2023-03-23T08:10:51;98515.03;;;12.64;90.81
26719;BME280;14326;50.794;6.060;2023-03-23T08:13:18;98524.75;;;12.66;89.63
26719;BME280;14326;50.794;6.060;2023-03-23T08:15:45;98519.41;;;12.68;89.90
26719;BME280;14326;50.794;6.060;2023-03-23T08:18:11;98529.00;;;12.80;88.96
26719;BME280;14326;50.794;6.060;2023-03-23T08:20:38;98530.81;;;12.78;88.96
26719;BME280;14326;50.794;6.060;2023-03-23T08:23:06;98523.63;;;12.83;89.32
26719;BME280;14326;50.794;6.060;2023-03-23T08:25:37;98532.44;;;12.86;89.87
26719;BME280;14326;50.794;6.060;2023-03-23T08:28:04;98538.66;;;12.85;90.51
26719;BME280;14326;50.794;6.060;2023-03-23T08:30:31;98548.53;;;12.82;91.20
26719;BME280;14326;50.794;6.060;2023-03-23T08:32:59;98548.63;;;12.76;92.44
26719;BME280;14326;50.794;6.060;2023-03-23T08:35:27;98550.44;;;12.73;92.16
26719;BME280;14326;50.794;6.060;2023-03-23T08:37:54;98574.44;;;12.75;92.10
26719;BME280;14326;50.794;6.060;2023-03-23T08:40:24;98572.69;;;12.72;92.97
26719;BME280;14326;50.794;6.060;2023-03-23T08:42:52;98567.28;;;12.77;93.71
26719;BME280;14326;50.794;6.060;2023-03-23T08:45:21;98562.88;;;12.73;93.32
26719;BME280;14326;50.794;6.060;2023-03-23T08:47:48;98558.50;;;12.72;94.27
26719;BME280;14326;50.794;6.060;2023-03-23T08:50:19;98551.41;;;12.68;95.50
26719;BME280;14326;50.794;6.060;2023-03-23T08:52:48;98537.94;;;12.77;94.80
26719;BME280;14326;50.794;6.060;2023-03-23T08:55:17;98534.38;;;12.78;93.94
26719;BME280;14326;50.794;6.060;2023-03-23T08:57:47;98547.75;;;12.73;94.46
26719;BME280;14326;50.794;6.060;2023-03-23T09:00:18;98545.94;;;12.77;93.72
26719;BME280;14326;50.794;6.060;2023-03-23T09:02:48;98553.94;;;12.77;93.17
26719;BME280;14326;50.794;6.060;2023-03-23T09:05:16;98547.63;;;12.83;92.43
26719;BME280;14326;50.794;6.060;2023-03-23T09:07:47;98543.97;;;12.88;91.43
26719;BME280;14326;50.794;6.060;2023-03-23T09:10:14;98543.78;;;12.97;90.59
26719;BME280;14326;50.794;6.060;2023-03-23T09:12:42;98565.03;;;13.05;91.61
26719;BME280;14326;50.794;6.060;2023-03-23T09:15:13;98572.88;;;13.14;90.65
26719;BME280;14326;50.794;6.060;2023-03-23T09:17:43;98574.66;;;13.15;90.68
26719;BME280;14326;50.794;6.060;2023-03-23T09:20:11;98568.47;;;13.11;90.97
26719;BME280;14326;50.794;6.060;2023-03-23T09:22:38;98572.16;;;13.04;90.38
26719;BME280;14326;50.794;6.060;2023-03-23T09:25:06;98567.66;;;13.06;90.79
26719;BME280;14326;50.794;6.060;2023-03-23T09:27:33;98572.13;;;13.07;94.79
26719;BME280;14326;50.794;6.060;2023-03-23T09:30:14;98580.22;;;13.01;95.11
26719;BME280;14326;50.794;6.060;2023-03-23T09:32:44;98570.56;;;12.94;97.45
26719;BME280;14326;50.794;6.060;2023-03-23T09:35:27;98577.59;;;12.98;96.72
26719;BME280;14326;50.794;6.060;2023-03-23T09:37:55;98563.38;;;12.96;96.98
26719;BME280;14326;50.794;6.060;2023-03-23T09:40:23;98564.38;;;12.91;98.02
26719;BME280;14326;50.794;6.060;2023-03-23T09:43:19;98558.94;;;12.97;97.76
26719;BME280;14326;50.794;6.060;2023-03-23T09:45:55;98562.25;;;13.13;97.92
26719;BME280;14326;50.794;6.060;2023-03-23T09:48:33;98560.25;;;13.25;97.07
26719;BME280;14326;50.794;6.060;2023-03-23T09:51:08;98569.84;;;13.35;96.47
26719;BME280;14326;50.794;6.060;2023-03-23T09:53:39;98581.34;;;13.39;95.21
26719;BME280;14326;50.794;6.060;2023-03-23T09:56:11;98584.97;;;13.36;94.45
26719;BME280;14326;50.794;6.060;2023-03-23T09:58:43;98586.81;;;13.31;95.49
26719;BME280;14326;50.794;6.060;2023-03-23T10:01:17;98606.56;;;13.24;96.09
26719;BME280;14326;50.794;6.060;2023-03-23T10:03:47;98613.88;;;13.13;100.00
26719;BME280;14326;50.794;6.060;2023-03-23T10:06:15;98607.06;;;12.91;100.00
26719;BME280;14326;50.794;6.060;2023-03-23T10:08:46;98592.94;;;12.86;100.00
26719;BME280;14326;50.794;6.060;2023-03-23T10:11:19;98600.00;;;12.90;100.00
26719;BME280;14326;50.794;6.060;2023-03-23T10:14:07;98588.28;;;12.98;100.00
26719;BME280;14326;50.794;6.060;2023-03-23T10:16:38;98586.41;;;13.03;100.00
26719;BME280;14326;50.794;6.060;2023-03-23T10:19:11;98586.19;;;13.19;100.00
26719;BME280;14326;50.794;6.060;2023-03-23T10:21:41;98600.22;;;13.30;100.00
26719;BME280;14326;50.794;6.060;2023-03-23T10:26:54;98597.25;;;13.45;99.09
26719;BME280;14326;50.794;6.060;2023-03-23T10:29:27;98592.66;;;13.53;98.21
26719;BME280;14326;50.794;6.060;2023-03-23T10:31:58;98597.69;;;13.67;95.52
26719;BME280;14326;50.794;6.060;2023-03-23T10:34:31;98585.88;;;13.78;95.43
26719;BME280;14326;50.794;6.060;2023-03-23T10:37:02;98599.22;;;13.80;94.10
26719;BME280;14326;50.794;6.060;2023-03-23T10:39:38;98600.00;;;13.86;94.02
26719;BME280;14326;50.794;6.060;2023-03-23T10:42:08;98597.19;;;13.92;93.43
26719;BME280;14326;50.794;6.060;2023-03-23T10:44:35;98599.88;;;13.91;92.61
26719;BME280;14326;50.794;6.060;2023-03-23T10:47:05;98607.97;;;13.89;92.00
26719;BME280;14326;50.794;6.060;2023-03-23T10:49:42;98602.63;;;13.89;91.41
26719;BME280;14326;50.794;6.060;2023-03-23T10:52:12;98604.53;;;13.83;92.09
26719;BME280;14326;50.794;6.060;2023-03-23T10:54:50;98606.56;;;13.70;95.05
26719;BME280;14326;50.794;6.060;2023-03-23T10:57:23;98613.03;;;13.59;98.17
26719;BME280;14326;50.794;6.060;2023-03-23T10:59:50;98612.19;;;13.55;98.63
26719;BME280;14326;50.794;6.060;2023-03-23T11:02:20;98605.16;;;13.51;98.02
26719;BME280;14326;50.794;6.060;2023-03-23T11:04:59;98603.25;;;13.56;98.38
26719;BME280;14326;50.794;6.060;2023-03-23T11:07:29;98598.59;;;13.67;98.45
26719;BME280;14326;50.794;6.060;2023-03-23T11:10:03;98595.03;;;13.67;96.34
26719;BME280;14326;50.794;6.060;2023-03-23T11:12:33;98604.06;;;13.61;98.54
26719;BME280;14326;50.794;6.060;2023-03-23T11:15:10;98611.13;;;13.65;98.11
26719;BME280;14326;50.794;6.060;2023-03-23T11:17:42;98609.91;;;13.81;97.80
26719;BME280;14326;50.794;6.060;2023-03-23T11:20:10;98602.75;;;13.83;94.80
26719;BME280;14326;50.794;6.060;2023-03-23T11:22:38;98612.50;;;13.84;95.54
26719;BME280;14326;50.794;6.060;2023-03-23T11:25:09;98610.81;;;13.80;95.60
26719;BME280;14326;50.794;6.060;2023-03-23T11:27:40;98613.34;;;13.86;95.18
26719;BME280;14326;50.794;6.060;2023-03-23T11:30:10;98611.41;;;13.94;94.89
26719;BME280;14326;50.794;6.060;2023-03-23T11:32:42;98600.53;;;14.04;94.76
26719;BME280;14326;50.794;6.060;2023-03-23T11:35:18;98603.72;;;14.21;91.89
26719;BME280;14326;50.794;6.060;2023-03-23T11:37:48;98600.09;;;14.23;91.59
26719;BME280;14326;50.794;6.060;2023-03-23T11:40:17;98592.81;;;14.30;90.72
26719;BME280;14326;50.794;6.060;2023-03-23T11:42:46;98611.19;;;14.48;91.69
26719;BME280;14326;50.794;6.060;2023-03-23T11:45:17;98598.66;;;14.86;88.78
26719;BME280;14326;50.794;6.060;2023-03-23T11:47:51;98610.78;;;15.02;87.16
26719;BME280;14326;50.794;6.060;2023-03-23T11:50:24;98609.75;;;15.07;87.09
26719;BME280;14326;50.794;6.060;2023-03-23T11:52:55;98616.28;;;14.96;85.75
26719;BME280;14326;50.794;6.060;2023-03-23T11:55:31;98611.13;;;14.87;85.63
26719;BME280;14326;50.794;6.060;2023-03-23T11:58:02;98608.00;;;14.69;85.81
26719;BME280;14326;50.794;6.060;2023-03-23T12:00:31;98604.59;;;14.61;85.75
26719;BME280;14326;50.794;6.060;2023-03-23T12:03:02;98603.16;;;14.48;86.42
26719;BME280;14326;50.794;6.060;2023-03-23T12:05:41;98600.41;;;14.50;87.30
26719;BME280;14326;50.794;6.060;2023-03-23T12:08:26;98605.47;;;14.62;86.93
26719;BME280;14326;50.794;6.060;2023-03-23T12:10:58;98606.38;;;14.62;86.94
26719;BME280;14326;50.794;6.060;2023-03-23T12:13:42;98603.63;;;14.65;85.67
26719;BME280;14326;50.794;6.060;2023-03-23T12:16:26;98599.63;;;14.83;85.41
26719;BME280;14326;50.794;6.060;2023-03-23T12:19:08;98612.97;;;14.85;83.21
26719;BME280;14326;50.794;6.060;2023-03-23T12:21:45;98619.56;;;14.71;84.19
26719;BME280;14326;50.794;6.060;2023-03-23T12:24:43;98610.38;;;14.43;85.31
26719;BME280;14326;50.794;6.060;2023-03-23T12:27:19;98599.84;;;14.37;88.60
26719;BME280;14326;50.794;6.060;2023-03-23T12:30:15;98605.34;;;14.28;92.05
26719;BME280;14326;50.794;6.060;2023-03-23T12:33:13;98623.34;;;14.20;92.20
26719;BME280;14326;50.794;6.060;2023-03-23T12:35:52;98607.28;;;14.20;90.63
26719;BME280;14326;50.794;6.060;2023-03-23T12:38:44;98618.84;;;14.22;91.10
26719;BME280;14326;50.794;6.060;2023-03-23T12:41:17;98624.28;;;14.19;89.84
26719;BME280;14326;50.794;6.060;2023-03-23T12:43:51;98627.09;;;14.13;91.07
26719;BME280;14326;50.794;6.060;2023-03-23T12:46:40;98643.19;;;14.10;90.90
26719;BME280;14326;50.794;6.060;2023-03-23T12:49:12;98648.88;;;13.93;91.89
26719;BME280;14326;50.794;6.060;2023-03-23T12:51:43;98655.34;;;13.81;94.70
26719;BME280;14326;50.794;6.060;2023-03-23T12:54:19;98658.44;;;13.60;98.84
26719;BME280;14326;50.794;6.060;2023-03-23T12:56:52;98638.28;;;13.41;100.00
26719;BME280;14326;50.794;6.060;2023-03-23T12:59:26;98628.81;;;13.25;100.00
26719;BME280;14326;50.794;6.060;2023-03-23T13:02:03;98630.78;;;13.12;100.00
26719;BME280;14326;50.794;6.060;2023-03-23T13:04:36;98625.41;;;13.13;100.00
26719;BME280;14326;50.794;6.060;2023-03-23T13:07:06;98611.94;;;13.20;100.00
26719;BME280;14326;50.794;6.060;2023-03-23T13:09:46;98609.16;;;13.26;100.00
26719;BME280;14326;50.794;6.060;2023-03-23T13:12:15;98606.13;;;13.47;100.00
26719;BME280;14326;50.794;6.060;2023-03-23T13:14:59;98588.72;;;13.72;100.00
26719;BME280;14326;50.794;6.060;2023-03-23T13:17:37;98604.94;;;14.06;100.00
26719;BME280;14326;50.794;6.060;2023-03-23T13:20:21;98598.91;;;14.37;98.14
26719;BME280;14326;50.794;6.060;2023-03-23T13:22:55;98605.97;;;14.42;94.24
26719;BME280;14326;50.794;6.060;2023-03-23T13:25:39;98595.59;;;14.65;95.10
26719;BME280;14326;50.794;6.060;2023-03-23T13:28:14;98583.19;;;14.98;92.75
26719;BME280;14326;50.794;6.060;2023-03-23T13:30:53;98577.78;;;15.34;90.18
26719;BME280;14326;50.794;6.060;2023-03-23T13:33:20;98585.59;;;15.43;86.61
26719;BME280;14326;50.794;6.060;2023-03-23T13:35:48;98574.28;;;15.66;85.08